Date,TemperatureHighF,TemperatureAvgF,TemperatureLowF,DewpointHighF,DewpointAvgF,DewpointLowF,HumidityHigh,HumidityAvg,HumidityLow,PressureMaxIn,PressureMinIn,WindSpeedMaxMPH,WindSpeedAvgMPH,GustSpeedMaxMPH,PrecipitationSumIn
2013-2-1,-1.8,-10.7,-23.1,-8.1,-17.5,-28.7,76,71,58,30.21,30.03,20,2,20,0.00
2013-2-2,8.4,0.7,-11.7,0.9,-5.3,-17.1,82,75,61,30.12,29.95,22,2,22,0.00
2013-2-3,11.7,6.0,1.6,0.7,-1.7,-7.4,80,70,58,30.02,29.95,25,2,28,0.00
2013-2-4,11.5,2.9,-8.5,6.6,-4.5,-13.7,83,71,57,30.04,29.64,32,4,35,0.01
2013-2-5,21.0,15.2,8.4,18.1,7.6,0.1,89,72,51,30.03,29.59,35,3,40,0.00
2013-2-6,20.3,15.9,9.5,16.7,11.1,3.9,91,81,71,30.06,29.92,27,2,30,0.05
2013-2-7,24.6,18.8,6.3,18.9,14.7,2.5,90,84,72,30.28,30.06,27,3,28,0.00
2013-2-8,25.3,12.6,-1.5,16.3,6.7,-5.8,89,77,65,30.33,30.13,30,2,32,0.00
2013-2-9,27.0,23.9,18.0,25.0,21.0,12.0,92,88,78,30.13,29.90,32,4,38,0.00
2013-2-10,27.1,25.3,23.7,25.2,23.2,21.2,92,92,90,29.91,29.44,43,9,48,0.58
2013-2-11,25.0,19.2,6.8,22.6,15.6,3.4,91,86,81,29.98,29.46,43,8,45,0.02
2013-2-12,30.9,19.9,4.6,23.5,14.9,1.2,88,81,68,29.97,29.75,25,4,28,0.00
2013-2-13,35.8,27.8,18.1,27.9,22.8,15.4,90,82,68,29.75,29.60,17,0,22,0.00
2013-2-14,26.2,18.6,8.1,21.9,9.8,0.1,88,69,44,30.17,29.69,43,5,43,0.00
2013-2-15,18.9,7.5,-2.7,4.8,-0.3,-6.9,91,71,52,30.27,30.17,35,3,35,0.00
2013-2-16,21.0,10.1,3.9,6.6,2.6,-0.9,82,72,52,30.20,30.04,17,1,20,0.00
2013-2-17,28.4,19.0,6.6,19.4,12.3,1.0,82,75,65,30.05,29.59,40,6,43,0.00
2013-2-18,26.1,17.6,3.6,22.1,12.0,-3.5,85,78,71,29.88,29.50,53,8,53,0.00
2013-2-19,6.1,1.0,-3.8,-3.6,-7.7,-10.8,74,67,55,30.36,29.88,53,14,55,0.00
2013-2-20,19.8,4.2,-10.1,1.8,-6.3,-15.3,78,62,44,30.43,30.36,22,2,22,0.00
2013-2-21,22.5,11.2,-2.2,15.4,1.4,-11.7,88,65,50,30.45,30.15,32,5,35,0.00
2013-2-22,24.1,21.2,18.1,20.5,18.0,15.4,90,87,81,30.15,29.86,27,2,28,0.11
2013-2-23,30.0,22.3,10.6,23.0,18.1,6.6,91,84,69,29.93,29.83,15,0,15,0.00
2013-2-24,32.5,17.8,3.0,21.4,12.2,-1.3,90,79,62,30.06,29.93,20,0,20,0.00
2013-2-25,30.9,19.4,6.1,22.6,14.4,2.1,88,81,70,30.08,30.02,22,2,22,0.00
2013-2-26,38.7,22.5,7.2,24.1,15.1,3.6,90,74,52,30.07,29.97,22,1,25,0.00
2013-2-27,41.5,30.3,20.3,23.9,19.1,13.1,74,63,48,30.09,29.95,47,6,55,0.00
2013-2-28,29.7,25.4,20.3,20.1,16.7,12.7,77,70,56,30.27,30.09,32,4,32,0.00